Terminal Aerodrome Forecast
Issued by NWS

Home | Current Version | Previous Version | Text Only | Print | Product List | Glossary On
Versions: 1 2 3 4 5 6 7 8 9 10 11 12 13 14 15 16 17 18 19 20 21 22 23 24 25 26 27 28 29 30 31 32 33 34 35 36 37 38 39
433
FTUS45 KSLC 230520
TAFEVW
TAF
KEVW 230520Z 2306/2406 15007KT P6SM SCT080 BKN120
     FM231100 27009KT P6SM VCSH SCT040 BKN080
     FM231400 26011KT P6SM SCT080 BKN120
     FM231700 27020G30KT P6SM SCT120
     FM240300 02007KT P6SM SCT120=

USA.gov is the U.S. government's official web portal to all federal, state and local government web resources and services.